.
WxDataArchive / Data Records for 2006-03-02
2006-03-01 March 2006 2006-03-03

Data Records for Thursday, 02 March 2006

Time	Temp	Chill	HIndex	Humid	Dewpt	 Wind 	HiWind	WindDir	Rain 	Barom 
-----	----	-----	------	-----	-----	------	------	-------	-----	----- 
00:00	33.8	33.8	33.8	62	22.2	2	6	90	0.00	29.742 
00:05	33.5	33.5	33.5	62	21.9	2	7	112	0.00	29.742 
00:10	33.4	33.4	33.4	62	21.8	3	7	90	0.00	29.742 
00:15	33.2	33.2	33.2	63	22.0	3	7	112	0.00	29.728 
00:20	33.1	33.1	33.1	64	22.3	2	6	112	0.00	29.728 
00:25	32.9	32.9	32.9	64	22.1	3	9	112	0.00	29.728 
00:30	32.7	32.7	32.7	63	21.5	3	6	112	0.00	29.721 
00:35	32.7	32.7	32.7	63	21.5	3	6	90	0.00	29.721 
00:40	32.7	32.7	32.7	63	21.5	3	6	112	0.00	29.721 
00:45	32.7	32.7	32.7	63	21.5	2	4	112	0.00	29.706 
00:50	32.7	32.7	32.7	63	21.5	3	6	90	0.00	29.706 
00:55	32.8	32.8	32.8	63	21.6	2	6	90	0.00	29.706 
01:00	32.9	32.9	32.9	62	21.3	3	5	90	0.00	29.695 
01:05	33.1	33.1	33.1	63	21.9	3	6	90	0.00	29.695 
01:10	33.2	33.2	33.2	62	21.6	3	6	90	0.00	29.695 
01:15	33.4	33.4	33.4	63	22.2	3	6	90	0.00	29.679 
01:20	33.2	29.5	33.2	66	23.1	4	7	90	0.00	29.679 
01:25	33.1	29.3	33.1	66	23.0	4	9	90	0.00	29.679 
01:30	32.9	29.1	32.9	67	23.2	4	10	112	0.00	29.668 
01:35	32.9	29.1	32.9	67	23.2	4	9	112	0.00	29.668 
01:40	32.9	32.9	32.9	67	23.2	3	7	90	0.00	29.668 
01:45	33.1	33.1	33.1	67	23.4	3	5	112	0.00	29.663 
01:50	32.9	32.9	32.9	68	23.5	3	5	90	0.00	29.663 
01:55	32.8	32.8	32.8	68	23.4	3	6	90	0.00	29.663 
02:00	32.7	32.7	32.7	69	23.7	2	4	112	0.00	29.651 
02:05	32.7	32.7	32.7	70	24.0	2	3	112	0.00	29.651 
02:10	32.5	32.5	32.5	69	23.5	3	6	112	0.00	29.651 
02:15	32.5	32.5	32.5	69	23.5	2	4	112	0.00	29.643 
02:20	32.5	32.5	32.5	69	23.5	2	4	112	0.00	29.643 
02:25	32.4	32.4	32.4	70	23.7	2	6	112	0.00	29.643 
02:30	32.1	32.1	32.1	71	23.8	2	4	90	0.00	29.638 
02:35	31.9	31.9	31.9	72	23.9	2	3	90	0.00	29.638 
02:40	31.8	31.8	31.8	72	23.8	2	4	90	0.00	29.638 
02:45	31.6	31.6	31.6	72	23.6	1	3	112	0.00	29.626 
02:50	31.6	31.6	31.6	72	23.6	1	3	112	0.00	29.626 
02:55	31.5	31.5	31.5	73	23.9	2	5	112	0.00	29.626 
03:00	31.5	31.5	31.5	73	23.9	2	5	90	0.00	29.609 
03:05	31.5	31.5	31.5	73	23.9	2	5	90	0.00	29.609 
03:10	31.3	31.3	31.3	74	24.0	1	3	90	0.00	29.609 
03:15	31.3	31.3	31.3	74	24.0	1	3	112	0.00	29.599 
03:20	31.2	31.2	31.2	74	23.9	1	3	112	0.00	29.599 
03:25	31.2	31.2	31.2	74	23.9	1	5	112	0.00	29.599 
03:30	31.2	31.2	31.2	74	23.9	1	2	112	0.00	29.593 
03:35	31.2	31.2	31.2	74	23.9	2	6	90	0.00	29.593 
03:40	31.3	31.3	31.3	74	24.0	1	4	112	0.00	29.593 
03:45	31.5	31.5	31.5	74	24.2	2	6	112	0.00	29.582 
03:50	31.5	31.5	31.5	74	24.2	1	4	112	0.00	29.582 
03:55	31.6	31.6	31.6	73	24.0	2	5	112	0.00	29.582 
04:00	31.6	31.6	31.6	73	24.0	1	3	90	0.00	29.571 
04:05	31.5	31.5	31.5	73	23.9	2	3	90	0.00	29.571 
04:10	31.5	31.5	31.5	73	23.9	1	2	112	0.00	29.571 
04:15	31.5	31.5	31.5	73	23.9	1	2	112	0.00	29.564 
04:20	31.5	31.5	31.5	73	23.9	0	2	112	0.00	29.564 
04:25	31.5	31.5	31.5	73	23.9	1	2	112	0.00	29.564 
04:30	31.6	31.6	31.6	72	23.6	2	4	112	0.00	29.559 
04:35	31.8	31.8	31.8	72	23.8	1	3	90	0.00	29.559 
04:40	31.9	31.9	31.9	71	23.6	1	4	90	0.00	29.559 
04:45	32.2	32.2	32.2	71	23.9	0	2	90	0.00	29.575 
04:50	32.4	32.4	32.4	70	23.7	1	3	68	0.00	29.575 
04:55	32.5	32.5	32.5	69	23.5	1	4	338	0.00	29.575 
05:00	32.7	32.7	32.7	69	23.7	1	3	0	0.00	29.591 
05:05	32.8	32.8	32.8	69	23.8	1	3	338	0.00	29.591 
05:10	32.8	32.8	32.8	68	23.4	1	5	0	0.00	29.591 
05:15	32.7	32.7	32.7	69	23.7	1	4	338	0.00	29.599 
05:20	32.7	32.7	32.7	68	23.3	1	3	0	0.00	29.599 
05:25	32.7	32.7	32.7	69	23.7	1	3	22	0.00	29.599 
05:30	32.7	32.7	32.7	67	23.0	1	3	292	0.00	29.597 
05:35	32.7	32.7	32.7	67	23.0	0	2	0	0.00	29.597 
05:40	32.7	32.7	32.7	67	23.0	0	1	0	0.00	29.597 
05:45	32.7	32.7	32.7	66	22.6	1	3	22	0.00	29.604 
05:50	32.8	32.8	32.8	65	22.3	1	3	338	0.00	29.604 
05:55	32.8	32.8	32.8	64	22.0	1	3	0	0.00	29.604 
06:00	32.8	32.8	32.8	64	22.0	1	3	45	0.00	29.608 
06:05	32.8	32.8	32.8	64	22.0	1	3	22	0.00	29.608 
06:10	32.9	32.9	32.9	64	22.1	1	2	22	0.00	29.608 
06:15	32.9	32.9	32.9	63	21.7	1	3	22	0.00	29.613 
06:20	32.9	32.9	32.9	63	21.7	1	3	22	0.00	29.613 
06:25	32.9	32.9	32.9	64	22.1	1	3	90	0.00	29.613 
06:30	32.9	32.9	32.9	64	22.1	1	4	68	0.00	29.605 
06:35	32.9	32.9	32.9	64	22.1	1	3	112	0.00	29.605 
06:40	32.9	32.9	32.9	65	22.4	1	3	68	0.00	29.605 
06:45	32.9	32.9	32.9	65	22.4	0	3	90	0.00	29.598 
06:50	32.9	32.9	32.9	65	22.4	0	3	90	0.00	29.598 
06:55	32.9	32.9	32.9	65	22.4	0	2	90	0.00	29.598 
07:00	33.1	33.1	33.1	65	22.6	0	1	90	0.00	29.611 
07:05	33.1	33.1	33.1	65	22.6	0	1	90	0.00	29.611 
07:10	33.1	33.1	33.1	65	22.6	0	1	90	0.00	29.611 
07:15	33.1	33.1	33.1	66	23.0	0	1	90	0.00	29.612 
07:20	33.1	33.1	33.1	65	22.6	0	2	90	0.00	29.612 
07:25	33.1	33.1	33.1	65	22.6	0	3	90	0.00	29.612 
07:30	32.9	32.9	32.9	65	22.4	0	1	90	0.00	29.609 
07:35	32.9	32.9	32.9	65	22.4	0	1	90	0.00	29.609 
07:40	33.1	33.1	33.1	65	22.6	0	2	180	0.00	29.609 
07:45	33.2	33.2	33.2	65	22.7	0	1	180	0.00	29.627 
07:50	33.2	33.2	33.2	65	22.7	0	1	180	0.00	29.627 
07:55	33.4	33.4	33.4	64	22.6	1	2	225	0.00	29.627 
08:00	33.4	33.4	33.4	64	22.6	1	2	248	0.00	29.645 
08:05	33.5	33.5	33.5	63	22.3	1	4	270	0.00	29.645 
08:10	33.5	33.5	33.5	62	21.9	0	1	270	0.00	29.645 
08:15	33.7	33.7	33.7	62	22.1	0	1	270	0.00	29.629 
08:20	33.8	33.8	33.8	62	22.2	0	1	270	0.00	29.629 
08:25	34.1	34.1	34.1	62	22.5	0	2	270	0.00	29.629 
08:30	34.3	34.3	34.3	61	22.3	0	1	270	0.00	29.643 
08:35	34.6	34.6	34.6	61	22.6	0	2	270	0.00	29.643 
08:40	34.7	34.7	34.7	59	21.9	1	3	270	0.00	29.643 
08:45	34.9	34.9	34.9	58	21.6	1	4	270	0.00	29.658 
08:50	35.0	35.0	35.0	58	21.7	1	3	270	0.00	29.658 
08:55	35.2	35.2	35.2	59	22.3	1	3	248	0.00	29.658 
09:00	35.5	35.5	35.5	58	22.2	1	4	248	0.00	29.658 
09:05	35.8	35.8	35.8	58	22.5	1	4	338	0.00	29.658 
09:10	36.3	36.3	36.3	58	23.0	1	3	270	0.00	29.658 
09:15	36.6	36.6	36.6	58	23.2	1	3	315	0.00	29.658 
09:20	36.9	36.9	36.9	57	23.1	1	3	315	0.00	29.658 
09:25	36.9	36.9	36.9	57	23.1	2	5	315	0.00	29.658 
09:30	37.0	37.0	37.0	58	23.6	1	3	270	0.00	29.663 
09:35	37.2	37.2	37.2	58	23.8	1	3	270	0.00	29.663 
09:40	37.5	37.5	37.5	58	24.1	1	3	315	0.00	29.663 
09:45	37.6	37.6	37.6	57	23.8	2	6	292	0.00	29.662 
09:50	37.6	37.6	37.6	58	24.2	2	4	270	0.00	29.662 
09:55	37.9	37.9	37.9	58	24.5	1	5	270	0.00	29.662 
10:00	37.9	37.9	37.9	57	24.0	2	4	315	0.00	29.660 
10:05	37.9	37.9	37.9	58	24.5	2	6	270	0.00	29.660 
10:10	37.9	37.9	37.9	58	24.5	2	4	315	0.00	29.660 
10:15	38.2	38.2	38.2	58	24.7	2	7	315	0.00	29.665 
10:20	38.3	38.3	38.3	58	24.8	2	9	315	0.00	29.665 
10:25	38.6	38.6	38.6	56	24.3	2	6	248	0.00	29.665 
10:30	39.3	39.3	39.3	58	25.8	2	5	292	0.00	29.662 
10:35	40.2	40.2	40.2	56	25.8	2	4	315	0.00	29.662 
10:40	40.9	40.9	40.9	55	26.0	2	5	292	0.00	29.662 
10:45	40.6	40.6	40.6	54	25.3	3	6	338	0.00	29.674 
10:50	40.5	40.5	40.5	55	25.6	3	10	270	0.00	29.674 
10:55	40.6	40.6	40.6	55	25.7	2	5	338	0.00	29.674 
11:00	40.2	40.2	40.2	56	25.8	3	6	270	0.00	29.691 
11:05	40.1	40.1	40.1	56	25.7	3	8	338	0.00	29.691 
11:10	40.1	40.1	40.1	56	25.7	3	10	315	0.00	29.691 
11:15	39.9	39.9	39.9	57	25.9	3	6	270	0.00	29.691 
11:20	40.1	40.1	40.1	57	26.1	3	6	270	0.00	29.691 
11:25	40.1	40.1	40.1	57	26.1	3	5	292	0.00	29.691 
11:30	40.1	40.1	40.1	57	26.1	3	6	270	0.00	29.690 
11:35	40.3	40.3	40.3	59	27.1	2	6	270	0.00	29.690 
11:40	40.3	40.3	40.3	57	26.3	3	7	270	0.00	29.690 
11:45	40.1	40.1	40.1	57	26.1	3	7	338	0.00	29.705 
11:50	40.2	40.2	40.2	58	26.6	3	7	270	0.00	29.705 
11:55	40.3	40.3	40.3	57	26.3	3	6	315	0.00	29.705 
12:00	39.9	37.2	39.9	57	25.9	4	9	338	0.00	29.723 
12:05	39.6	39.6	39.6	58	26.1	3	9	315	0.00	29.723 
12:10	39.6	39.6	39.6	58	26.1	3	9	315	0.00	29.723 
12:15	39.3	36.5	39.3	58	25.8	4	11	270	0.00	29.735 
12:20	39.2	36.4	39.2	59	26.1	4	10	270	0.00	29.735 
12:25	38.9	38.9	38.9	60	26.2	3	5	270	0.00	29.735 
12:30	38.8	38.8	38.8	61	26.5	3	6	338	0.00	29.741 
12:35	38.6	38.6	38.6	62	26.7	3	7	338	0.00	29.741 
12:40	38.3	35.4	38.3	63	26.8	4	14	315	0.00	29.741 
12:45	38.3	35.4	38.3	63	26.8	4	9	270	0.00	29.752 
12:50	38.2	35.2	38.2	64	27.1	4	9	338	0.00	29.752 
12:55	38.3	35.4	38.3	64	27.2	4	9	270	0.00	29.752 
13:00	38.2	35.2	38.2	65	27.5	4	10	292	0.00	29.754 
13:05	38.2	35.2	38.2	65	27.5	4	9	270	0.00	29.754 
13:10	38.3	38.3	38.3	65	27.6	3	6	292	0.00	29.754 
13:15	38.3	35.4	38.3	65	27.6	4	9	270	0.00	29.755 
13:20	38.0	38.0	38.0	65	27.3	3	6	292	0.00	29.755 
13:25	37.9	37.9	37.9	66	27.6	3	7	292	0.00	29.755 
13:30	37.6	34.5	37.6	67	27.7	4	10	270	0.00	29.767 
13:35	37.3	33.3	37.3	68	27.7	5	11	270	0.00	29.767 
13:40	37.2	37.2	37.2	69	28.0	3	7	292	0.00	29.767 
13:45	37.0	37.0	37.0	70	28.1	3	9	315	0.00	29.773 
13:50	36.8	36.8	36.8	71	28.3	3	8	270	0.00	29.773 
13:55	36.6	33.4	36.6	72	28.4	4	10	270	0.00	29.773 
14:00	36.3	36.3	36.3	72	28.2	3	11	338	0.00	29.787 
14:05	36.2	32.9	36.2	73	28.4	4	11	315	0.00	29.787 
14:10	36.0	36.0	36.0	74	28.5	3	10	292	0.00	29.787 
14:15	35.9	35.9	35.9	74	28.4	2	5	292	0.00	29.791 
14:20	35.9	35.9	35.9	75	28.8	3	5	270	0.00	29.791 
14:25	35.9	35.9	35.9	75	28.8	2	6	270	0.00	29.791 
14:30	35.9	35.9	35.9	76	29.1	2	7	270	0.00	29.802 
14:35	35.8	35.8	35.8	76	29.0	3	11	270	0.00	29.802 
14:40	35.9	35.9	35.9	76	29.1	3	8	270	0.00	29.802 
14:45	35.9	35.9	35.9	77	29.4	3	10	270	0.00	29.814 
14:50	35.9	35.9	35.9	77	29.4	2	6	270	0.00	29.814 
14:55	35.8	35.8	35.8	77	29.3	3	5	270	0.00	29.814 
15:00	35.8	35.8	35.8	78	29.6	3	7	270	0.00	29.825 
15:05	35.6	35.6	35.6	79	29.7	2	5	315	0.00	29.825 
15:10	35.8	35.8	35.8	79	29.9	2	5	270	0.00	29.825 
15:15	35.5	32.1	35.5	79	29.6	4	12	270	0.00	29.840 
15:20	35.2	35.2	35.2	82	30.3	3	10	270	0.00	29.840 
15:25	34.7	31.2	34.7	84	30.4	4	9	270	0.00	29.840 
15:30	34.3	34.3	34.3	85	30.3	2	5	292	0.00	29.857 
15:35	34.3	34.3	34.3	86	30.6	2	5	270	0.00	29.857 
15:40	34.3	34.3	34.3	85	30.3	2	6	315	0.00	29.857 
15:45	34.4	34.4	34.4	84	30.1	3	9	270	0.00	29.867 
15:50	34.6	34.6	34.6	84	30.3	2	5	315	0.00	29.867 
15:55	34.4	34.4	34.4	84	30.1	1	3	315	0.00	29.867 
16:00	34.6	34.6	34.6	84	30.3	2	5	338	0.00	29.881 
16:05	34.6	34.6	34.6	84	30.3	2	3	315	0.00	29.881 
16:10	34.7	34.7	34.7	83	30.1	2	4	338	0.00	29.881 
16:15	34.7	34.7	34.7	82	29.8	2	5	270	0.00	29.889 
16:20	34.9	34.9	34.9	81	29.7	2	5	315	0.00	29.889 
16:25	35.0	35.0	35.0	80	29.5	2	6	270	0.00	29.889 
16:30	35.2	35.2	35.2	80	29.7	2	5	292	0.00	29.902 
16:35	35.3	35.3	35.3	80	29.8	2	5	292	0.00	29.902 
16:40	35.3	35.3	35.3	79	29.4	2	5	338	0.00	29.902 
16:45	35.3	35.3	35.3	79	29.4	2	7	338	0.00	29.914 
16:50	35.3	35.3	35.3	79	29.4	2	6	338	0.00	29.914 
16:55	35.3	35.3	35.3	78	29.1	2	7	0	0.00	29.914 
17:00	34.9	34.9	34.9	77	28.4	2	5	0	0.00	29.931 
17:05	34.4	34.4	34.4	76	27.6	3	10	338	0.00	29.931 
17:10	34.1	34.1	34.1	76	27.3	2	5	338	0.00	29.931 
17:15	34.1	34.1	34.1	77	27.7	2	6	292	0.00	29.946 
17:20	34.0	34.0	34.0	77	27.6	2	8	338	0.00	29.946 
17:25	33.8	33.8	33.8	77	27.4	1	5	0	0.00	29.946 
17:30	33.8	33.8	33.8	77	27.4	2	6	338	0.00	29.951 
17:35	33.7	33.7	33.7	76	27.0	1	4	292	0.00	29.951 
17:40	33.5	33.5	33.5	76	26.8	2	6	338	0.00	29.951 
17:45	33.5	33.5	33.5	76	26.8	2	5	315	0.00	29.959 
17:50	33.4	33.4	33.4	77	27.0	2	6	338	0.00	29.959 
17:55	33.2	33.2	33.2	77	26.8	2	8	292	0.00	29.959 
18:00	33.2	33.2	33.2	77	26.8	1	4	292	0.00	29.967 
18:05	33.1	33.1	33.1	78	27.0	1	5	315	0.00	29.967 
18:10	33.1	33.1	33.1	77	26.7	1	3	338	0.00	29.967 
18:15	32.9	32.9	32.9	77	26.5	1	4	45	0.00	29.979 
18:20	32.8	32.8	32.8	77	26.4	1	3	22	0.00	29.979 
18:25	32.8	32.8	32.8	77	26.4	1	2	338	0.00	29.979 
18:30	32.7	32.7	32.7	77	26.3	1	3	338	0.00	29.986 
18:35	32.7	32.7	32.7	77	26.3	1	2	0	0.00	29.986 
18:40	32.7	32.7	32.7	77	26.3	1	2	338	0.00	29.986 
18:45	32.5	32.5	32.5	78	26.4	0	2	338	0.00	29.997 
18:50	32.5	32.5	32.5	77	26.1	1	3	338	0.00	29.997 
18:55	32.5	32.5	32.5	77	26.1	1	3	338	0.00	29.997 
19:00	32.5	32.5	32.5	77	26.1	1	4	338	0.00	30.013 
19:05	32.4	32.4	32.4	77	26.0	1	4	338	0.00	30.013 
19:10	32.4	32.4	32.4	77	26.0	0	2	292	0.00	30.013 
19:15	32.4	32.4	32.4	77	26.0	1	2	0	0.00	30.029 
19:20	32.1	32.1	32.1	75	25.1	1	7	22	0.00	30.029 
19:25	31.9	31.9	31.9	75	24.9	1	6	338	0.00	30.029 
19:30	31.9	31.9	31.9	74	24.6	0	2	0	0.00	30.042 
19:35	31.8	31.8	31.8	74	24.5	1	3	22	0.00	30.042 
19:40	31.8	31.8	31.8	74	24.5	0	2	22	0.00	30.042 
19:45	31.8	31.8	31.8	73	24.1	1	3	315	0.00	30.046 
19:50	31.8	31.8	31.8	74	24.5	0	2	315	0.00	30.046 
19:55	31.8	31.8	31.8	75	24.8	0	2	315	0.00	30.046 
20:00	31.8	31.8	31.8	75	24.8	0	1	315	0.00	30.054 
20:05	31.8	31.8	31.8	76	25.1	0	1	315	0.00	30.054 
20:10	31.8	31.8	31.8	74	24.5	0	2	338	0.00	30.054 
20:15	31.8	31.8	31.8	74	24.5	1	4	270	0.00	30.051 
20:20	31.9	31.9	31.9	74	24.6	0	2	22	0.00	30.051 
20:25	31.9	31.9	31.9	73	24.2	1	3	0	0.00	30.051 
20:30	31.9	31.9	31.9	73	24.2	1	2	292	0.00	30.057 
20:35	31.9	31.9	31.9	73	24.2	0	1	338	0.00	30.057 
20:40	31.9	31.9	31.9	74	24.6	0	1	338	0.00	30.057 
20:45	31.9	31.9	31.9	74	24.6	1	3	338	0.00	30.063 
20:50	31.9	31.9	31.9	74	24.6	1	3	270	0.00	30.063 
20:55	31.9	31.9	31.9	74	24.6	0	2	270	0.00	30.063 
21:00	31.9	31.9	31.9	74	24.6	0	3	270	0.00	30.070 
21:05	31.9	31.9	31.9	74	24.6	0	2	270	0.00	30.070 
21:10	31.8	31.8	31.8	75	24.8	0	1	270	0.00	30.070 
21:15	31.8	31.8	31.8	75	24.8	0	2	270	0.00	30.071 
21:20	31.8	31.8	31.8	75	24.8	0	2	270	0.00	30.071 
21:25	31.8	31.8	31.8	76	25.1	0	1	270	0.00	30.071 
21:30	31.8	31.8	31.8	76	25.1	0	1	270	0.00	30.074 
21:35	31.8	31.8	31.8	76	25.1	0	1	270	0.00	30.074 
21:40	31.8	31.8	31.8	76	25.1	0	2	270	0.00	30.074 
21:45	31.8	31.8	31.8	76	25.1	0	1	270	0.00	30.084 
21:50	31.8	31.8	31.8	77	25.4	0	1	270	0.00	30.084 
21:55	31.8	31.8	31.8	76	25.1	0	2	270	0.00	30.084 
22:00	31.8	31.8	31.8	77	25.4	0	2	270	0.00	30.091 
22:05	31.8	31.8	31.8	77	25.4	0	3	270	0.00	30.091 
22:10	31.8	31.8	31.8	77	25.4	0	2	270	0.00	30.091 
22:15	31.8	31.8	31.8	77	25.4	0	2	315	0.00	30.099 
22:20	31.8	31.8	31.8	77	25.4	0	2	338	0.00	30.099 
22:25	31.8	31.8	31.8	77	25.4	0	2	338	0.00	30.099 
22:30	31.8	31.8	31.8	77	25.4	1	2	338	0.00	30.106 
22:35	31.8	31.8	31.8	77	25.4	1	3	0	0.00	30.106 
22:40	31.6	31.6	31.6	76	24.9	1	4	315	0.00	30.106 
22:45	31.6	31.6	31.6	75	24.6	2	4	338	0.00	30.113 
22:50	31.5	31.5	31.5	75	24.5	1	2	338	0.00	30.113 
22:55	31.5	31.5	31.5	73	23.9	1	4	0	0.00	30.113 
23:00	31.3	31.3	31.3	73	23.7	1	3	338	0.00	30.118 
23:05	31.2	31.2	31.2	72	23.2	1	5	0	0.00	30.118 
23:10	31.2	31.2	31.2	72	23.2	1	4	338	0.00	30.118 
23:15	31.0	31.0	31.0	72	23.1	2	5	22	0.00	30.120 
23:20	30.9	30.9	30.9	72	23.0	1	2	0	0.00	30.120 
23:25	30.7	30.7	30.7	70	22.1	1	3	0	0.00	30.120 
23:30	30.7	30.7	30.7	71	22.4	1	3	338	0.00	30.129 
23:35	30.6	30.6	30.6	69	21.7	1	3	0	0.00	30.129 
23:40	30.4	30.4	30.4	68	21.1	1	3	0	0.00	30.129 
23:45	30.1	30.1	30.1	68	20.8	1	3	338	0.00	30.131 
23:50	29.8	29.8	29.8	68	20.5	1	3	0	0.00	30.131 
23:55	29.7	29.7	29.7	68	20.5	1	3	22	0.00	30.131 

CoCoRaHS
IN-AL-39
A2 Web Hosting
Creative Commons License
GoDaddy
Look for:

loaded 2017-12-11 12:25:23 • last modified 2010-11-18 10:43:29
Privacy PolicyDisclaimer
• wx.awcolley.com is powered by PmWiki v.2002016 •
• all content (unless otherwise noted) © 2017 A W Colley